首页
METAR-TAF:

METAR-TAF

机场 :

赫尔辛基-万塔机场

赫尔辛基, 芬兰

纬度: 60-19N, 经度: 024-58E, 海拔: 51米

当前天气观测

该预报发布于20分钟前的23:50 UTC
风速12节,风向北转西北
温度 3°C
湿度 87%
气压 1028 hPa
能见度10公里或以上
散云层高于2600英尺

METAR: EFHK 172350Z 33012KT 9999 SCT026 03/01 Q1028 NOSIG

时间: 02:10 (00:10 UTC)

预报

该预报发布于42分钟前的23:28 UTC
预报有效从18日的 00点(UTC)到 18日的 24点(UTC)
风速9节,风向西北
能见度10公里或以上
散云层高于2500英尺
成为
从 18日的 02点(UTC)到 18日的 04点(UTC)
风速11节,风向

TAF: EFHK 172328Z 1800/1824 31009KT 9999 SCT025 BECMG 1802/1804 01011KT

超过4000个机场的气象观测和天气预报(METAR&TAF报告)。

可查询的气象台以黄色和红色小点在地图上表示。

将鼠标移到小点上方,可查看气象台名称。

然后点击查看天气观测和预报。

如需切换地图:点击带黑十字的绿色按钮放大地图;点击带横线的绿色按钮缩小地图;或者点击绿色箭头查看邻近地区的地图。


METAR-TAF: